Time;durP1;ratioP1;P1;durP2;ratioP2;P2;SDS_P1;SDS_P2;PMS_P1;PMS_P2;Temp;Humidity;BMP_temperature;BMP_pressure;BME280_temperature;BME280_humidity;BME280_pressure;Samples;Min_cycle;Max_cycle;Signal;HPM_P1;HPM_P2
2022/12/17 13:06:35;;;;;;;46.30;31.93;;;-2.90;68.20;;;-3.62;68.04;98883.00;5023557;28;20470;-73
2022/12/17 13:09:07;;;;;;;48.63;32.27;;;-2.90;68.80;;;-3.82;67.63;98872.00;5019873;28;20466;-75
2022/12/17 13:11:38;;;;;;;49.43;32.23;;;-3.00;68.10;;;-3.72;67.39;98885.44;5021757;28;20489;-76
2022/12/17 13:14:15;;;;;;;52.03;32.73;;;-3.00;68.30;;;-3.69;67.71;98890.50;5018457;28;20467;-76
2022/12/17 13:16:53;;;;;;;49.80;32.90;;;-3.00;68.50;;;-3.77;68.10;98879.63;5021902;28;20466;-77
2022/12/17 13:19:36;;;;;;;49.57;32.00;;;-3.00;68.70;;;-3.53;67.58;98887.69;5021094;28;20478;-76
2022/12/17 13:22:24;;;;;;;49.70;33.30;;;-2.90;68.50;;;-3.59;67.82;98882.78;5017390;28;20480;-79
2022/12/17 13:24:55;;;;;;;53.33;33.53;;;-2.90;68.30;;;-3.70;67.70;98892.31;5036333;28;20565;-80
2022/12/17 13:27:30;;;;;;;48.07;32.60;;;-2.90;68.40;;;-3.68;67.82;98894.00;5019087;28;20477;-78
2022/12/17 13:30:11;;;;;;;48.93;32.30;;;-2.90;68.30;;;-3.75;68.10;98894.41;5021801;28;20466;-79
2022/12/17 13:32:47;;;;;;;53.03;30.50;;;-3.00;68.30;;;-3.93;69.03;98869.22;5014390;28;20574;-79
2022/12/17 13:35:29;;;;;;;48.90;30.40;;;-3.00;68.60;;;-3.77;67.98;98896.31;5022031;28;20462;-74
2022/12/17 13:38:08;;;;;;;45.83;33.80;;;-3.10;68.50;;;-3.94;68.47;98899.22;5019523;28;20462;-76
2022/12/17 13:40:45;;;;;;;55.73;32.03;;;-3.10;68.40;;;-3.81;68.56;98902.75;5018435;28;20902;-76
2022/12/17 13:43:21;;;;;;;45.00;30.33;;;-3.10;68.60;;;-3.85;68.62;98909.19;5022190;28;20988;-78
2022/12/17 13:45:50;;;;;;;47.60;32.87;;;-3.10;68.70;;;-3.89;68.58;98910.31;5021545;28;20945;-76
2022/12/17 13:48:22;;;;;;;47.90;32.00;;;-3.20;68.50;;;-3.88;68.31;98910.22;5021424;28;20606;-75
2022/12/17 13:51:00;;;;;;;42.47;31.50;;;-3.10;68.70;;;-3.65;68.30;98925.50;5017657;28;20459;-76
2022/12/17 13:53:32;;;;;;;54.50;31.93;;;-3.00;68.90;;;-3.70;69.00;98913.44;5021138;28;20454;-75
2022/12/17 13:56:00;;;;;;;48.90;31.33;;;-3.00;69.20;;;-3.85;69.14;98917.13;5016901;28;20445;-74
2022/12/17 13:58:31;;;;;;;50.47;31.30;;;-3.10;69.10;;;-3.96;69.36;98923.06;5015684;28;20461;-74
2022/12/17 14:01:07;;;;;;;49.70;31.00;;;-3.20;69.10;;;-3.87;68.77;98911.06;5017602;28;20468;-79
2022/12/17 14:03:34;;;;;;;47.90;31.67;;;-3.20;69.30;;;-3.82;68.80;98924.81;5040823;28;20459;-77
2022/12/17 14:06:03;;;;;;;43.27;29.73;;;-3.20;69.20;;;-4.55;68.74;98832.72;5016078;28;20466;-78
2022/12/17 14:08:33;;;;;;;48.80;32.47;;;-3.20;69.00;;;-3.82;69.29;98935.38;5025451;28;20456;-80
2022/12/17 14:13:49;;;;;;;56.80;32.53;;;-3.20;69.80;;;-3.87;69.03;98948.03;5021792;28;20570;-79
2022/12/17 14:16:17;;;;;;;48.87;32.67;;;-3.30;69.60;;;-3.90;69.63;98937.66;5018309;28;20471;-75
2022/12/17 14:18:49;;;;;;;55.73;33.80;;;-3.30;69.80;;;-3.97;69.70;98953.06;5038607;28;20459;-78
2022/12/17 14:21:18;;;;;;;57.50;33.27;;;-3.40;69.70;;;-4.01;69.42;98946.31;5021237;28;21543;-77
2022/12/17 14:23:49;;;;;;;50.70;32.67;;;-3.40;69.60;;;-4.01;69.33;98949.81;5023548;28;20463;-76
2022/12/17 14:26:17;;;;;;;56.80;33.60;;;-3.40;69.70;;;-4.15;70.00;98958.59;5025012;28;20495;-74
2022/12/17 14:28:50;;;;;;;58.10;34.80;;;-3.50;70.20;;;-4.08;70.59;98966.97;5014987;28;20820;-76
2022/12/17 14:31:21;;;;;;;54.17;34.40;;;-3.50;70.40;;;-4.18;70.97;98971.13;5026537;28;20452;-74
2022/12/17 14:34:06;;;;;;;54.40;34.90;;;-3.60;70.60;;;-4.12;70.91;98962.84;5025133;28;20465;-76
2022/12/17 14:36:37;;;;;;;50.60;32.17;;;-3.60;70.80;;;-4.18;70.69;98965.84;5027296;28;20485;-74
2022/12/17 14:39:16;;;;;;;50.27;33.80;;;-3.60;71.00;;;-4.29;70.87;98963.91;5023232;28;20555;-76
2022/12/17 14:44:30;;;;;;;53.30;33.07;;;-3.90;70.80;;;-4.58;71.76;98959.53;5022242;28;20608;-75
2022/12/17 14:47:12;;;;;;;58.97;36.07;;;-3.90;71.10;;;-4.56;71.84;98962.91;5021671;28;20466;-77
2022/12/17 14:49:54;;;;;;;52.47;31.03;;;-4.00;71.30;;;-4.50;71.48;98955.56;5020937;28;20469;-74
2022/12/17 14:52:35;;;;;;;52.30;34.30;;;-4.00;71.50;;;-4.63;71.75;98966.03;5017903;28;20470;-80
2022/12/17 14:55:23;;;;;;;60.03;33.80;;;-4.10;71.20;;;-4.75;72.22;98957.09;5025037;28;20467;-73
2022/12/17 14:57:51;;;;;;;55.47;32.17;;;-4.20;71.70;;;-4.85;72.23;98965.56;5046412;28;20452;-74
2022/12/17 15:00:20;;;;;;;57.00;32.57;;;-4.30;71.50;;;-4.92;71.95;98943.19;5034992;28;20447;-78
2022/12/17 15:02:52;;;;;;;59.13;34.93;;;-4.20;71.90;;;-4.91;72.67;98967.72;5028969;28;20506;-73
2022/12/17 15:05:20;;;;;;;56.17;32.20;;;-4.30;71.90;;;-5.02;72.90;98971.88;5022062;28;20470;-76
2022/12/17 15:07:48;;;;;;;57.97;34.97;;;-4.40;72.00;;;-5.26;73.38;98964.50;5040674;28;20524;-75
2022/12/17 15:10:20;;;;;;;50.20;32.47;;;-4.60;72.30;;;-5.15;73.72;98982.31;5029626;28;20599;-77
2022/12/17 15:12:50;;;;;;;56.67;33.23;;;-4.60;72.90;;;-5.22;73.82;98981.00;5023100;28;20462;-73
2022/12/17 15:15:19;;;;;;;56.37;34.87;;;-4.70;73.10;;;-5.84;73.88;98889.78;5021458;28;20928;-78
2022/12/17 15:17:46;;;;;;;62.90;35.70;;;-4.70;73.40;;;-5.46;74.54;98978.84;5012212;28;20451;-75
2022/12/17 15:20:18;;;;;;;55.37;34.00;;;-4.90;73.50;;;-5.90;74.84;98903.31;5013689;28;20463;-75
2022/12/17 15:22:46;;;;;;;56.80;34.13;;;-4.90;74.30;;;-5.42;75.05;98990.91;5019515;28;20502;-74
2022/12/17 15:25:17;;;;;;;48.03;31.07;;;-4.90;74.40;;;-5.64;75.38;98977.31;5030135;28;20455;-72
2022/12/17 15:27:45;;;;;;;50.17;32.30;;;-5.00;74.70;;;-5.66;75.70;99003.72;5030833;28;20482;-74
2022/12/17 15:30:15;;;;;;;52.93;32.60;;;-5.10;75.20;;;-5.60;75.69;98998.09;5029113;28;20444;-74
2022/12/17 15:32:43;;;;;;;50.73;31.93;;;-5.10;75.50;;;-5.63;75.73;98994.78;5023480;28;20467;-76
2022/12/17 15:35:11;;;;;;;60.50;34.27;;;-5.10;75.50;;;-5.80;76.34;99001.88;5016025;28;20470;-75
2022/12/17 15:37:39;;;;;;;53.03;31.77;;;-5.10;75.70;;;-6.23;76.65;98946.44;5032652;28;20455;-75
2022/12/17 15:40:09;;;;;;;52.37;33.07;;;-5.30;76.00;;;-5.95;76.24;99011.47;5028983;28;20470;-75
2022/12/17 15:45:22;;;;;;;52.80;31.80;;;-5.40;76.70;;;-5.99;76.84;99002.94;5011821;28;20579;-72
2022/12/17 15:47:50;;;;;;;53.23;31.27;;;-5.40;77.40;;;-6.10;77.44;99002.69;5025286;28;20466;-76
2022/12/17 15:50:17;;;;;;;53.13;31.63;;;-5.50;77.80;;;-6.09;77.80;99007.03;5030811;28;20462;-76
2022/12/17 15:52:44;;;;;;;54.23;32.97;;;-5.50;78.30;;;-6.12;77.94;99001.94;5033230;28;20469;-75
2022/12/17 15:55:14;;;;;;;53.73;31.40;;;-5.60;78.90;;;-6.20;78.23;98988.34;5026449;28;20450;-77
2022/12/17 15:57:43;;;;;;;55.67;34.63;;;-5.60;79.30;;;-6.19;77.95;98990.91;5016048;28;20978;-74
2022/12/17 16:00:11;;;;;;;60.30;32.83;;;-5.60;79.70;;;-6.28;78.39;98996.66;5013740;28;20525;-76
2022/12/17 16:02:39;;;;;;;52.27;34.97;;;-5.70;79.70;;;-6.35;78.03;98982.16;5026503;28;20489;-74
2022/12/17 16:05:07;;;;;;;60.50;34.67;;;-5.70;80.30;;;-6.23;78.65;98988.53;5029927;28;20524;-75
2022/12/17 16:07:35;;;;;;;54.40;33.97;;;-5.70;81.20;;;-6.80;78.78;98914.44;5030977;28;20529;-73
2022/12/17 16:10:03;;;;;;;53.87;32.83;;;-5.70;81.30;;;-6.24;79.24;98997.34;5023708;28;20879;-74
2022/12/17 16:12:31;;;;;;;59.97;34.57;;;-5.70;82.10;;;-6.20;79.08;98998.88;5015598;28;20467;-75
2022/12/17 16:14:59;;;;;;;57.70;35.30;;;-5.70;82.30;;;-6.14;78.93;98999.38;5010864;28;20464;-76
2022/12/17 16:17:27;;;;;;;59.13;35.33;;;-5.60;82.80;;;-6.10;79.46;99002.69;5010263;28;20467;-74
2022/12/17 16:19:54;;;;;;;54.37;33.70;;;-5.60;83.00;;;-5.98;78.88;99003.75;5011938;28;20462;-73
2022/12/17 16:22:22;;;;;;;55.57;31.67;;;-5.50;83.30;;;-6.05;78.90;99008.53;5009495;28;20475;-75
2022/12/17 16:24:51;;;;;;;56.67;33.17;;;-5.60;82.30;;;-6.29;79.10;99001.09;5019141;28;20467;-75
2022/12/17 16:27:19;;;;;;;61.10;33.70;;;-5.60;81.80;;;-6.31;78.98;99002.09;5016345;28;20458;-74
2022/12/17 16:29:47;;;;;;;59.05;35.00;;;-5.70;82.10;;;-6.41;79.36;98996.50;5032101;28;20453;-76
2022/12/17 16:32:16;;;;;;;54.43;33.20;;;-5.80;82.50;;;-6.43;79.62;99001.84;5018684;28;20197;-75
2022/12/17 16:34:44;;;;;;;54.33;33.60;;;-5.90;82.80;;;-6.47;79.49;98991.56;5014006;28;20505;-75
2022/12/17 16:37:12;;;;;;;52.80;34.33;;;-5.90;83.40;;;-6.45;79.77;99014.22;5026577;28;20447;-77
2022/12/17 16:39:39;;;;;;;56.00;32.80;;;-5.90;83.50;;;-6.45;79.89;99011.59;5029391;28;20447;-78
2022/12/17 16:42:06;;;;;;;71.87;38.97;;;-5.90;83.80;;;-6.51;80.26;99017.19;5024382;28;20474;-75
2022/12/17 16:44:34;;;;;;;69.93;40.03;;;-5.90;83.90;;;-6.55;80.12;99021.75;5030904;28;20816;-76
2022/12/17 16:47:02;;;;;;;73.17;37.60;;;-6.00;84.20;;;-6.92;80.19;98976.38;5033344;28;20462;-76
2022/12/17 16:49:30;;;;;;;69.50;40.20;;;-6.00;84.20;;;-6.72;80.84;99008.66;5025754;28;20466;-75
2022/12/17 16:51:58;;;;;;;74.37;39.47;;;-6.10;84.60;;;-6.77;81.25;99015.94;5024267;28;20607;-76
2022/12/17 16:54:29;;;;;;;64.30;37.87;;;-6.10;84.90;;;-6.69;80.81;99019.03;5026929;28;20455;-76
2022/12/17 16:56:56;;;;;;;58.53;37.57;;;-6.10;85.60;;;-6.69;80.65;99021.66;5013229;28;20677;-76
2022/12/17 16:59:24;;;;;;;66.33;38.37;;;-6.10;85.20;;;-6.64;80.46;99032.75;5010826;28;20448;-74
2022/12/17 17:01:52;;;;;;;80.47;41.83;;;-6.10;85.70;;;-6.72;80.45;99032.34;5017942;28;20954;-76
2022/12/17 17:04:22;;;;;;;70.17;39.50;;;-6.10;85.40;;;-6.81;80.48;99024.91;5022060;28;20200;-74
2022/12/17 17:06:53;;;;;;;72.97;40.17;;;-6.20;85.20;;;-6.86;80.85;99031.28;5018182;28;20463;-76
2022/12/17 17:09:22;;;;;;;63.20;35.77;;;-6.30;85.10;;;-6.90;80.84;99029.75;5024101;28;20491;-77
2022/12/17 17:11:50;;;;;;;63.83;36.22;;;-6.30;85.20;;;-7.13;81.03;99016.00;5013788;28;20451;-74
2022/12/17 17:14:18;;;;;;;68.93;38.60;;;-6.40;85.20;;;-7.02;80.51;99036.47;5029598;28;20207;-77
2022/12/17 17:16:45;;;;;;;60.87;36.10;;;-6.40;85.80;;;-7.05;81.22;99038.38;5031093;28;20519;-75
2022/12/17 17:19:15;;;;;;;53.67;34.57;;;-6.50;85.80;;;-7.16;80.60;99015.28;5032049;28;20449;-75
2022/12/17 17:21:48;;;;;;;59.92;36.47;;;-6.40;85.50;;;-7.09;80.95;99042.97;5030758;28;20446;-75
2022/12/17 17:24:19;;;;;;;71.27;38.17;;;-6.50;85.40;;;-7.15;80.57;99031.00;5019080;28;20671;-76
2022/12/17 17:26:48;;;;;;;69.13;39.70;;;-6.40;85.50;;;-7.11;80.80;99050.09;5011969;28;20451;-76
2022/12/17 17:29:15;;;;;;;61.73;38.90;;;-6.50;84.80;;;-7.25;81.34;99048.13;5018799;28;20459;-77
2022/12/17 17:31:42;;;;;;;72.00;41.90;;;-6.50;84.50;;;-7.27;81.28;99050.00;5030670;28;20459;-76
2022/12/17 17:34:10;;;;;;;64.23;39.40;;;-6.60;84.90;;;-7.21;81.36;99060.19;5018642;28;20451;-75
2022/12/17 17:36:38;;;;;;;74.20;41.47;;;-6.60;85.60;;;-7.24;81.99;99065.59;5016294;28;20479;-75
2022/12/17 17:39:06;;;;;;;71.53;39.77;;;-6.60;86.00;;;-7.28;82.07;99056.19;5017501;28;20524;-76
2022/12/17 17:41:36;;;;;;;66.70;41.77;;;-6.60;86.80;;;-7.20;82.42;99066.31;5038611;28;20466;-76
2022/12/17 17:44:06;;;;;;;69.50;40.33;;;-6.60;87.40;;;-7.54;81.66;99037.31;5036285;28;20473;-74
2022/12/17 17:46:34;;;;;;;74.70;40.73;;;-6.70;87.00;;;-7.41;81.84;99071.72;5022220;28;20920;-77
2022/12/17 17:49:06;;;;;;;75.37;41.20;;;-6.70;87.40;;;-7.41;82.21;99076.97;5037296;28;21083;-77
2022/12/17 17:51:36;;;;;;;72.90;42.60;;;-6.80;87.80;;;-7.40;82.72;99065.53;5019395;28;20861;-77
2022/12/17 17:54:04;;;;;;;75.43;41.97;;;-6.70;88.70;;;-7.41;82.11;99076.97;5014706;28;20455;-73
2022/12/17 17:56:37;;;;;;;73.60;43.37;;;-6.80;88.60;;;-7.45;82.13;99075.38;5020851;28;20215;-78
2022/12/17 17:59:06;;;;;;;79.55;44.35;;;-6.80;88.60;;;-7.42;82.84;99086.59;5027976;28;20454;-76
2022/12/17 18:01:35;;;;;;;72.87;40.70;;;-6.80;88.90;;;-7.56;82.69;99066.28;5024804;28;20656;-75
2022/12/17 18:04:05;;;;;;;80.30;44.30;;;-6.80;88.80;;;-7.35;82.61;99088.91;5012738;28;21069;-77
2022/12/17 18:06:33;;;;;;;70.68;42.38;;;-6.80;89.50;;;-7.47;81.65;99028.22;5021368;28;20481;-78
2022/12/17 18:09:00;;;;;;;69.53;42.57;;;-6.50;90.20;;;-6.92;82.30;99096.44;5021662;28;20846;-77
2022/12/17 18:11:30;;;;;;;67.97;42.15;;;-6.40;89.80;;;-6.72;82.21;99103.31;5026887;28;20482;-75
2022/12/17 18:14:00;;;;;;;76.17;42.53;;;-6.20;90.00;;;-6.87;82.32;99084.78;5032685;28;20210;-74
2022/12/17 18:16:29;;;;;;;68.17;39.47;;;-6.10;88.60;;;-6.76;82.48;99109.63;5017241;28;20443;-75
2022/12/17 18:18:59;;;;;;;63.07;39.20;;;-6.10;88.00;;;-6.82;82.46;99113.44;5035941;28;20511;-75
2022/12/17 18:21:29;;;;;;;66.87;39.60;;;-6.20;87.50;;;-6.97;82.24;99094.91;5030658;28;20461;-76
2022/12/17 18:23:58;;;;;;;64.60;38.30;;;-6.10;87.80;;;-6.87;82.74;99112.81;5042930;28;20475;-74
2022/12/17 18:26:29;;;;;;;67.90;39.30;;;-6.10;86.80;;;-7.00;83.35;99104.72;5026850;28;20509;-80
2022/12/17 18:29:01;;;;;;;64.13;35.67;;;-6.20;86.70;;;-7.06;83.44;99110.25;5041447;28;20455;-74
2022/12/17 18:31:30;;;;;;;67.57;36.60;;;-6.30;88.00;;;-6.99;82.97;99096.72;5035865;28;20458;-75
2022/12/17 18:34:00;;;;;;;68.30;34.27;;;-6.30;89.40;;;-7.15;83.26;99073.03;5041051;28;20465;-78
2022/12/17 18:36:31;;;;;;;60.07;34.60;;;-6.20;88.70;;;-7.15;83.31;99073.03;5039880;28;20569;-80
2022/12/17 18:39:03;;;;;;;57.50;36.43;;;-6.20;88.50;;;-7.04;83.68;99104.00;5018935;28;20463;-77
2022/12/17 18:44:19;;;;;;;62.93;34.17;;;-6.20;87.80;;;-7.13;84.03;99110.56;5017546;28;20487;-75
2022/12/17 18:46:46;;;;;;;59.83;34.20;;;-6.20;88.40;;;-7.33;84.46;99100.22;5017685;28;20468;-78
2022/12/17 18:49:18;;;;;;;59.60;34.80;;;-6.30;88.50;;;-7.28;84.69;99113.97;5020517;28;21240;-77
2022/12/17 18:51:48;;;;;;;67.13;35.03;;;-6.30;89.00;;;-7.31;83.62;99111.50;5020664;28;21300;-76
2022/12/17 18:54:18;;;;;;;67.50;36.33;;;-6.40;87.80;;;-7.33;83.98;99119.44;5019987;28;20509;-77
2022/12/17 18:56:46;;;;;;;60.57;36.30;;;-6.50;88.20;;;-7.37;83.40;99114.41;5027121;28;20458;-77
2022/12/17 18:59:17;;;;;;;64.93;36.57;;;-6.50;88.50;;;-7.38;83.50;99115.31;5027703;28;20493;-73
2022/12/17 19:01:46;;;;;;;63.50;32.30;;;-6.50;87.40;;;-7.52;83.60;99116.84;5025183;28;20483;-79
2022/12/17 19:04:15;;;;;;;66.67;37.70;;;-6.70;87.00;;;-7.55;83.34;99124.88;5028263;28;20563;-79
2022/12/17 19:06:44;;;;;;;68.13;35.77;;;-6.80;88.10;;;-7.50;83.82;99125.53;5023882;28;20470;-76
2022/12/17 19:09:19;;;;;;;68.88;41.70;;;-6.70;89.80;;;-7.48;83.72;99130.69;5007245;28;20447;-75
2022/12/17 19:11:47;;;;;;;73.50;37.20;;;-6.60;89.00;;;-7.61;84.21;99133.88;5009075;28;20228;-75
2022/12/17 19:14:16;;;;;;;69.13;36.80;;;-6.70;88.60;;;-7.74;83.50;99098.63;5009488;28;20468;-76
2022/12/17 19:16:44;;;;;;;58.90;35.23;;;-6.70;88.50;;;-7.58;83.53;99125.88;5009717;28;20452;-79
2022/12/17 19:19:13;;;;;;;59.90;34.07;;;-6.80;88.60;;;-7.81;83.70;99111.19;5022244;28;20458;-79
2022/12/17 19:21:40;;;;;;;61.72;32.63;;;-6.80;89.40;;;-7.58;84.42;99140.78;5019904;28;20471;-75
2022/12/17 19:24:12;;;;;;;59.50;33.10;;;-6.80;90.40;;;-7.75;84.55;99128.44;5017992;28;20235;-72
2022/12/17 19:26:40;;;;;;;59.87;33.17;;;-6.90;90.10;;;-7.69;84.85;99146.53;5023183;28;20491;-82
2022/12/17 19:29:09;;;;;;;62.60;33.43;;;-6.90;90.50;;;-7.82;84.86;99133.13;5022251;28;20451;-74
2022/12/17 19:31:37;;;;;;;63.90;35.03;;;-6.90;90.90;;;-8.26;84.92;99074.78;5025485;28;20472;-76
2022/12/17 19:34:09;;;;;;;54.08;32.50;;;-7.00;90.90;;;-7.74;84.94;99143.25;5036047;28;20465;-76
2022/12/17 19:36:37;;;;;;;55.00;32.47;;;-7.00;90.60;;;-7.73;85.26;99150.25;5024847;28;20211;-79
2022/12/17 19:39:08;;;;;;;54.67;32.30;;;-6.90;91.00;;;-7.73;84.65;99148.44;5021297;28;20474;-73
2022/12/17 19:41:35;;;;;;;61.90;35.40;;;-6.90;91.20;;;-7.73;85.06;99164.19;5020845;28;20541;-78
2022/12/17 19:44:05;;;;;;;59.80;32.60;;;-6.90;91.00;;;-7.83;84.60;99157.66;5025983;28;21056;-78
2022/12/17 19:46:35;;;;;;;59.33;33.23;;;-7.00;90.50;;;-7.89;84.95;99152.72;5028761;28;20466;-75
2022/12/17 19:49:04;;;;;;;68.53;35.23;;;-7.00;91.50;;;-8.00;84.66;99130.44;5022141;28;20478;-77
2022/12/17 19:51:32;;;;;;;62.77;34.23;;;-7.00;91.00;;;-7.97;85.07;99153.06;5021086;28;20479;-79
2022/12/17 19:54:00;;;;;;;62.90;34.23;;;-7.10;90.50;;;-8.02;85.04;99137.53;5013647;28;20476;-78
2022/12/17 19:56:29;;;;;;;59.50;35.30;;;-7.10;91.20;;;-8.38;84.92;99080.59;5035112;28;20524;-77
2022/12/17 19:59:00;;;;;;;59.05;34.17;;;-7.10;91.00;;;-8.07;84.91;99164.88;5013743;28;20538;-74
2022/12/17 20:01:31;;;;;;;64.00;36.20;;;-7.20;90.30;;;-7.95;84.72;99164.34;5006613;28;20188;-80
2022/12/17 20:03:59;;;;;;;64.73;36.57;;;-7.20;91.40;;;-8.29;85.47;99132.59;5023478;28;20481;-79
2022/12/17 20:06:30;;;;;;;56.08;34.47;;;-7.10;91.70;;;-8.00;84.90;99164.53;5033484;28;20898;-77
2022/12/17 20:08:59;;;;;;;59.20;34.53;;;-7.10;91.20;;;-8.73;83.91;99038.47;5020581;28;20234;-78
2022/12/17 20:11:35;;;;;;;62.80;36.60;;;-7.20;90.60;;;-8.08;83.91;99189.41;5026671;28;20508;-78
2022/12/17 20:14:07;;;;;;;74.60;40.38;;;-7.20;90.10;;;-8.18;85.27;99181.09;5032942;28;20539;-88
2022/12/17 20:16:37;;;;;;;70.40;37.63;;;-7.20;90.60;;;-8.26;85.30;99144.72;5014468;28;20210;-76
2022/12/17 20:19:10;;;;;;;76.13;38.67;;;-7.20;90.60;;;-8.93;85.73;99048.06;5025124;28;20469;-78
2022/12/17 20:21:38;;;;;;;64.73;37.60;;;-7.20;90.50;;;-8.25;85.17;99152.53;5024259;28;20474;-83
2022/12/17 20:24:08;;;;;;;65.53;39.20;;;-7.20;90.60;;;-8.15;84.34;99159.97;5024525;28;21016;-82
2022/12/17 20:26:35;;;;;;;70.37;38.90;;;-7.20;90.00;;;-8.16;84.28;99160.91;5023118;28;20484;-80
2022/12/17 20:29:03;;;;;;;64.75;36.90;;;-7.20;89.40;;;-8.43;84.14;99122.75;5022854;28;20538;-82
2022/12/17 20:31:31;;;;;;;77.32;37.05;;;-7.20;88.60;;;-8.21;84.66;99166.34;5023595;28;20196;-75
2022/12/17 20:34:00;;;;;;;66.73;35.93;;;-7.30;87.60;;;-8.63;83.96;99118.41;5022426;28;20200;-76
2022/12/17 20:36:27;;;;;;;67.75;36.50;;;-7.40;87.90;;;-8.60;83.53;99120.03;5026502;28;20466;-75
2022/12/17 20:38:56;;;;;;;68.50;35.47;;;-7.40;88.20;;;-8.31;83.30;99155.41;5025518;28;20196;-72
2022/12/17 20:41:26;;;;;;;60.60;34.40;;;-7.40;88.20;;;-8.57;83.23;99133.88;5023816;28;20463;-76
2022/12/17 20:43:54;;;;;;;63.13;35.20;;;-7.40;86.90;;;-8.63;84.22;99142.00;5021803;28;20485;-73
2022/12/17 20:46:23;;;;;;;70.03;37.70;;;-7.50;87.20;;;-8.49;84.28;99167.59;5042736;28;20467;-78
2022/12/17 20:48:51;;;;;;;66.70;38.80;;;-7.50;87.80;;;-8.59;84.38;99148.78;5038202;28;20489;-79
2022/12/17 20:51:22;;;;;;;62.30;35.57;;;-7.50;87.40;;;-8.50;84.31;99162.44;5023040;28;20451;-77
2022/12/17 20:53:50;;;;;;;57.60;35.80;;;-7.50;87.60;;;-8.46;83.15;99170.06;5040109;28;20451;-75
2022/12/17 20:56:23;;;;;;;67.87;37.30;;;-7.60;86.90;;;-8.76;84.03;99152.16;5020246;28;20451;-85
2022/12/17 20:58:54;;;;;;;63.33;37.73;;;-7.60;87.00;;;-8.66;84.37;99168.34;5026426;28;20459;-77
2022/12/17 21:01:23;;;;;;;65.30;35.30;;;-7.60;87.00;;;-8.57;83.79;99173.19;5027305;28;20451;-77
2022/12/17 21:03:53;;;;;;;60.42;34.42;;;-7.60;86.70;;;-8.60;83.67;99178.53;5028948;28;20480;-85
2022/12/17 21:06:23;;;;;;;60.30;33.03;;;-7.60;86.20;;;-8.60;83.44;99172.47;5025514;28;20280;-84
2022/12/17 21:08:53;;;;;;;61.43;33.23;;;-7.60;86.20;;;-8.87;83.53;99118.56;5043713;28;20469;-80
2022/12/17 21:11:26;;;;;;;71.10;34.80;;;-7.60;86.00;;;-8.62;82.78;99175.13;5033551;28;20469;-83
2022/12/17 21:13:54;;;;;;;60.23;33.53;;;-7.70;85.20;;;-8.61;83.19;99168.97;5025903;28;20865;-73
2022/12/17 21:16:23;;;;;;;57.65;32.75;;;-7.70;85.20;;;-8.67;82.24;99171.88;5020766;28;20489;-74
2022/12/17 21:18:51;;;;;;;55.92;32.03;;;-7.80;84.70;;;-8.68;83.17;99170.19;5019067;28;20239;-77
2022/12/17 21:21:21;;;;;;;57.97;32.88;;;-7.70;85.50;;;-8.73;82.87;99169.50;5018675;28;20204;-76
2022/12/17 21:23:50;;;;;;;58.92;31.67;;;-7.80;84.90;;;-8.77;82.75;99176.66;5019836;28;20824;-77
2022/12/17 21:26:22;;;;;;;64.15;32.03;;;-7.80;84.60;;;-8.82;83.50;99178.59;5021810;28;20199;-76
2022/12/17 21:28:51;;;;;;;57.00;30.73;;;-7.90;84.60;;;-8.75;82.28;99181.81;5023010;28;20200;-77
2022/12/17 21:31:21;;;;;;;50.45;30.80;;;-7.90;84.80;;;-8.79;82.28;99193.34;5023339;28;20688;-76
2022/12/17 21:33:51;;;;;;;55.63;30.45;;;-7.90;84.60;;;-8.98;82.98;99179.25;5040305;28;20200;-77
2022/12/17 21:36:20;;;;;;;50.83;28.17;;;-7.90;84.20;;;-8.91;82.36;99200.78;5021975;28;20216;-78
2022/12/17 21:38:48;;;;;;;51.35;27.90;;;-8.00;84.10;;;-9.32;81.98;99140.50;5024116;28;20679;-76
2022/12/17 21:41:19;;;;;;;51.87;30.10;;;-8.10;84.30;;;-9.88;81.97;99082.50;5018687;28;20665;-78
2022/12/17 21:43:52;;;;;;;51.08;29.35;;;-8.20;83.90;;;-11.20;83.14;98905.44;5016055;28;20474;-75
2022/12/17 21:46:20;;;;;;;49.97;27.90;;;-8.40;84.40;;;-9.65;83.69;99164.47;5017088;28;20270;-82
2022/12/17 21:48:47;;;;;;;48.17;27.83;;;-8.50;85.40;;;-9.33;84.36;99222.53;5021568;28;20997;-78
2022/12/17 21:51:15;;;;;;;51.07;30.37;;;-8.60;86.80;;;-9.35;85.01;99227.00;5038094;28;20224;-80
2022/12/17 21:53:42;;;;;;;46.17;28.45;;;-8.60;88.20;;;-9.31;84.73;99223.38;5016861;28;20453;-79
2022/12/17 21:56:12;;;;;;;48.27;30.10;;;-8.60;89.30;;;-9.28;84.51;99231.09;5016262;28;20215;-75
2022/12/17 21:58:40;;;;;;;54.15;29.13;;;-8.60;90.10;;;-9.03;84.08;99235.34;5020885;28;21052;-76
2022/12/17 22:01:15;;;;;;;49.58;27.85;;;-8.40;91.40;;;-8.78;83.18;99231.75;5015032;28;20204;-76
2022/12/17 22:03:43;;;;;;;45.77;26.90;;;-8.20;91.90;;;-8.71;83.04;99243.69;5013128;28;20224;-78
2022/12/17 22:06:14;;;;;;;49.93;27.77;;;-8.00;90.90;;;-8.61;82.30;99239.75;5035161;28;20448;-84
2022/12/17 22:08:42;;;;;;;50.20;28.70;;;-7.80;89.20;;;-9.25;81.88;99150.66;5026518;28;20887;-82
2022/12/17 22:11:11;;;;;;;49.65;26.85;;;-7.80;86.30;;;-9.68;81.28;99072.09;5027366;28;20467;-76
2022/12/17 22:16:25;;;;;;;50.43;26.40;;;-7.80;83.50;;;-8.76;81.78;99245.63;5032405;28;20208;-75
2022/12/17 22:18:53;;;;;;;45.05;25.85;;;-7.90;83.10;;;-8.86;81.58;99246.00;5027901;28;20473;-76
2022/12/17 22:21:20;;;;;;;47.03;26.60;;;-8.00;83.00;;;-9.21;82.30;99224.69;5022857;28;20227;-74
2022/12/17 22:23:48;;;;;;;40.17;24.27;;;-8.20;82.70;;;-9.47;81.91;99176.84;5025111;28;20478;-75
2022/12/17 22:26:17;;;;;;;45.53;24.88;;;-8.30;84.00;;;-9.03;82.39;99259.78;5018831;28;20266;-73
2022/12/17 22:28:47;;;;;;;45.97;26.10;;;-8.30;85.00;;;-8.92;81.48;99245.41;5026326;28;20201;-76
2022/12/17 22:34:04;;;;;;;49.60;25.60;;;-8.30;85.10;;;-9.54;83.15;99186.72;5024297;28;20192;-74
2022/12/17 22:36:33;;;;;;;48.45;25.80;;;-8.30;85.90;;;-9.00;83.29;99248.34;5021282;28;20454;-73
2022/12/17 22:39:01;;;;;;;45.20;24.40;;;-8.20;87.50;;;-9.34;83.35;99192.06;5043752;28;20231;-76
2022/12/17 22:44:14;;;;;;;38.85;23.58;;;-8.10;87.50;;;-9.20;83.30;99243.88;5018157;28;20219;-76
2022/12/17 22:46:42;;;;;;;44.13;24.23;;;-8.20;86.80;;;-9.23;84.08;99250.09;5040026;28;20263;-75
2022/12/17 22:49:10;;;;;;;46.20;24.20;;;-8.10;86.80;;;-9.15;84.46;99263.75;5016655;28;20501;-72
2022/12/17 22:51:39;;;;;;;39.87;23.87;;;-8.10;86.80;;;-9.07;83.79;99273.06;5023397;28;20477;-74
2022/12/17 22:54:07;;;;;;;40.10;23.87;;;-8.10;86.80;;;-9.15;83.05;99266.38;5017954;28;20470;-74
2022/12/17 22:56:35;;;;;;;42.97;24.00;;;-8.10;85.70;;;-9.19;82.87;99264.75;5023220;28;20458;-74
2022/12/17 22:59:04;;;;;;;40.47;23.95;;;-8.20;85.30;;;-9.22;83.09;99258.81;5042879;28;20516;-76
2022/12/17 23:01:31;;;;;;;39.47;22.38;;;-8.20;84.30;;;-9.59;82.79;99245.38;5017496;28;20208;-72
2022/12/17 23:04:01;;;;;;;40.05;23.95;;;-8.20;83.50;;;-9.50;82.66;99234.53;5026528;28;20277;-77
2022/12/17 23:06:30;;;;;;;42.53;25.40;;;-8.30;83.90;;;-9.40;83.02;99266.44;5036433;28;20273;-77
2022/12/17 23:08:57;;;;;;;41.60;23.00;;;-8.30;83.90;;;-9.40;83.14;99269.91;5022313;28;20824;-76
2022/12/17 23:11:27;;;;;;;37.27;22.83;;;-8.30;83.70;;;-9.62;83.30;99248.94;5017647;28;20535;-74
2022/12/17 23:13:55;;;;;;;41.47;22.85;;;-8.40;84.50;;;-9.63;83.41;99233.28;5021262;28;20821;-75
2022/12/17 23:16:24;;;;;;;36.90;21.23;;;-8.40;84.90;;;-9.61;84.03;99261.09;5037295;28;20575;-75
2022/12/17 23:18:52;;;;;;;35.80;20.73;;;-8.40;85.30;;;-9.91;84.51;99201.16;5023626;28;20836;-75
2022/12/17 23:21:23;;;;;;;38.95;20.45;;;-8.50;86.20;;;-9.61;83.35;99248.03;5029208;28;20255;-77
2022/12/17 23:23:52;;;;;;;41.35;23.02;;;-8.50;85.20;;;-9.52;83.60;99241.59;5027960;28;20275;-78
2022/12/17 23:26:23;;;;;;;36.67;21.58;;;-8.50;85.20;;;-9.63;83.43;99213.22;5025509;28;20282;-74
2022/12/17 23:28:55;;;;;;;33.90;20.70;;;-8.50;85.10;;;-9.82;82.83;99179.03;5019569;28;20265;-74
2022/12/17 23:31:23;;;;;;;37.80;22.67;;;-8.60;84.90;;;-9.89;82.15;99180.19;5023089;28;20812;-73
2022/12/17 23:33:51;;;;;;;36.47;21.20;;;-8.60;84.20;;;-9.74;83.68;99245.03;5019898;28;20449;-73
2022/12/17 23:36:22;;;;;;;39.70;22.90;;;-8.60;83.50;;;-10.30;83.54;99152.91;5039467;28;20203;-72
2022/12/17 23:38:52;;;;;;;39.97;21.57;;;-8.60;84.00;;;-9.89;83.02;99227.28;5025875;28;20208;-75
2022/12/17 23:41:21;;;;;;;46.22;22.20;;;-8.70;83.80;;;-9.80;82.63;99241.78;5022923;28;20481;-72